Latest Weather Observations for Jimna

IDQ60901

Issued at 12:01 pm EST Tuesday 31 March 2015 (issued every 10 minutes, with the page automatically refreshed every 10 minutes)

About weather observations | Map of Brisbane area stations | Latest observations for Brisbane area | Other Formats
Station Details ID: 040651 Name: JIMNA FORESTRY Lat: -26.66 Lon: 152.46 Height: 523.0 m
Data from the previous 72 hours. | See also: Recent months at Jimna
Date/Time
EST
Tmp

°C
App
Tmp
°C
Dew
Point
°C
Rel
Hum
%
Delta-T

°C
Wind Press
QNH
hPa
Press
MSL
hPa
Rain
since
9 am
mm
Dir
 
Spd
km/h
Gust
km/h
Spd
kts
Gust
kts
31/12:00pm 22.8 - 13.8 57 5.4 - - - - - - - 0.0
31/11:30am 22.8 - 14.4 59 5.1 - - - - - - - 0.0
31/11:00am 22.3 - 13.9 59 5.0 - - - - - - - 0.0
31/10:30am 21.4 - 13.8 62 4.5 - - - - - - - 0.0
31/10:00am 21.1 - 14.7 67 3.8 - - - - - - - 0.0
31/09:30am 20.6 - 15.2 71 3.3 - - - - - - - 0.0
31/09:00am 20.2 - 15.8 76 2.7 - - - - - - - 0.0
31/08:30am 19.3 - 15.4 78 2.4 - - - - - - - 0.0
31/08:00am 18.9 - 15.6 81 2.0 - - - - - - - 0.0
31/07:30am 18.5 - 15.6 83 1.8 - - - - - - - 0.0
31/07:00am 17.8 - 15.2 85 1.6 - - - - - - - 0.0
31/06:30am 17.0 - 14.6 86 1.4 - - - - - - - 0.0
31/06:00am 17.4 - 14.7 84 1.6 - - - - - - - 0.0
31/05:30am 17.6 - 14.7 83 1.7 - - - - - - - 0.0
31/05:00am 17.5 - 14.8 84 1.6 - - - - - - - 0.0
31/04:30am 17.6 - 14.5 82 1.8 - - - - - - - 0.0
31/04:00am 17.5 - 14.6 83 1.7 - - - - - - - 0.0
31/03:30am 17.7 - 14.8 83 1.7 - - - - - - - 0.0
31/03:00am 17.6 - 14.7 83 1.7 - - - - - - - 0.0
31/02:30am 17.6 - 15.0 85 1.5 - - - - - - - 0.0
31/02:00am 16.9 - 14.5 86 1.4 - - - - - - - 0.0
31/01:30am 17.0 - 14.6 86 1.4 - - - - - - - 0.0
31/01:00am 16.9 - 14.5 86 1.4 - - - - - - - 0.0
31/12:30am 16.9 - 14.5 86 1.4 - - - - - - - 0.0
31/12:00am 16.7 - 14.2 85 1.5 - - - - - - - 0.0
 
Date/Time
EST
Tmp

°C
App
Tmp
°C
Dew
Point
°C
Rel
Hum
%
Delta-T

°C
Wind Press
QNH
hPa
Press
MSL
hPa
Rain
since
9 am
mm
Dir
 
Spd
km/h
Gust
km/h
Spd
kts
Gust
kts
30/11:30pm 16.9 - 13.8 82 1.8 - - - - - - - 0.0
30/11:00pm 17.7 - 14.2 80 2.1 - - - - - - - 0.0
30/10:30pm 18.0 - 14.5 80 2.1 - - - - - - - 0.0
30/10:00pm 18.0 - 14.9 82 1.8 - - - - - - - 0.0
30/09:30pm 17.7 - 14.8 83 1.7 - - - - - - - 0.0
30/09:00pm 17.8 - 14.9 83 1.7 - - - - - - - 0.0
30/08:30pm 18.0 - 15.3 84 1.6 - - - - - - - 0.0
30/08:00pm 17.7 - 14.4 81 1.9 - - - - - - - 0.0
30/07:30pm 18.2 - 14.7 80 2.1 - - - - - - - 0.0
30/07:00pm 18.6 - 14.9 79 2.2 - - - - - - - 0.0
30/06:30pm 19.1 - 15.0 77 2.5 - - - - - - - 0.0
30/06:00pm 19.8 - 14.8 73 3.0 - - - - - - - 0.0
30/05:30pm 20.6 - 14.9 70 3.4 - - - - - - - 0.0
30/05:00pm 21.0 - 15.1 69 3.6 - - - - - - - 0.0
30/04:30pm 21.3 - 14.9 67 3.9 - - - - - - - 0.0
30/04:00pm 21.8 - 14.9 65 4.2 - - - - - - - 0.0
30/03:30pm 22.9 - 14.5 59 5.1 - - - - - - - 0.0
30/03:00pm 23.3 - 15.1 60 5.0 - - - - - - - 0.0
30/02:30pm 24.7 - 15.6 57 5.6 - - - - - - - 0.0
30/02:00pm 23.8 - 15.0 57 5.4 - - - - - - - 0.0
30/01:30pm 23.2 - 13.9 56 5.6 - - - - - - - 0.0
30/01:00pm 24.3 - 13.2 50 6.6 - - - - - - - 0.0
30/12:30pm 24.3 - 14.7 55 5.8 - - - - - - - 0.0
30/12:00pm 24.2 - 13.7 52 6.3 - - - - - - - 0.0
30/11:30am 24.0 - 14.7 56 5.7 - - - - - - - 0.0
30/11:00am 23.0 - 14.6 59 5.1 - - - - - - - 0.0
30/10:30am 23.0 - 14.3 58 5.2 - - - - - - - 0.0
30/10:00am 21.6 - 15.0 66 4.0 - - - - - - - 0.0
30/09:30am 21.8 - 16.3 71 3.4 - - - - - - - 0.0
30/09:00am 20.8 - 15.8 73 3.1 - - - - - - - 0.0
30/08:30am 20.7 - 17.3 81 2.1 - - - - - - - 0.0
30/08:00am 18.6 - 16.8 89 1.1 - - - - - - - 0.0
30/07:30am 17.1 - 15.8 92 0.8 - - - - - - - 0.0
30/07:00am 16.5 - 15.9 96 0.4 - - - - - - - 0.0
30/06:30am 15.9 - 14.9 94 0.6 - - - - - - - 0.0
30/06:00am 16.1 - 15.3 95 0.5 - - - - - - - 0.0
30/05:30am 16.2 - 15.4 95 0.5 - - - - - - - 0.0
30/05:00am 16.3 - 14.8 91 0.9 - - - - - - - 0.0
30/04:30am 16.5 - 15.0 91 0.9 - - - - - - - 0.0
30/04:00am 16.7 - 15.9 95 0.5 - - - - - - - 0.0
30/03:30am 16.4 - 14.9 91 0.9 - - - - - - - 0.0
30/03:00am 16.3 - 14.7 90 0.9 - - - - - - - 0.0
30/02:30am 16.5 - 14.9 90 0.9 - - - - - - - 0.0
30/02:00am 16.8 - 14.8 88 1.2 - - - - - - - 0.0
30/01:30am 17.2 - 15.5 90 1.0 - - - - - - - 0.0
30/01:00am 16.6 - 15.1 91 0.9 - - - - - - - 0.0
30/12:30am 15.9 - 14.1 89 1.0 - - - - - - - 0.0
30/12:00am 16.2 - 14.0 87 1.3 - - - - - - - 0.0
 
Date/Time
EST
Tmp

°C
App
Tmp
°C
Dew
Point
°C
Rel
Hum
%
Delta-T

°C
Wind Press
QNH
hPa
Press
MSL
hPa
Rain
since
9 am
mm
Dir
 
Spd
km/h
Gust
km/h
Spd
kts
Gust
kts
29/11:30pm 16.9 - 14.4 85 1.5 - - - - - - - 0.0
29/11:00pm 17.5 - 14.8 84 1.6 - - - - - - - 0.0
29/10:30pm 17.7 - 15.0 84 1.6 - - - - - - - 0.0
29/10:00pm 17.6 - 14.7 83 1.7 - - - - - - - 0.0
29/09:30pm 17.6 - 14.5 82 1.8 - - - - - - - 0.0
29/09:00pm 17.9 - 14.6 81 2.0 - - - - - - - 0.0
29/08:30pm 17.5 - 14.2 81 1.9 - - - - - - - 0.0
29/08:00pm 18.2 - 14.1 77 2.4 - - - - - - - 0.0
29/07:30pm 18.7 - 14.2 75 2.7 - - - - - - - 0.0
29/07:00pm 19.0 - 14.3 74 2.8 - - - - - - - 0.0
29/06:30pm 19.3 - 14.3 73 3.0 - - - - - - - 0.0
29/06:00pm 20.1 - 14.7 71 3.2 - - - - - - - 0.0
29/05:30pm 21.0 - 14.6 67 3.8 - - - - - - - 0.0
29/05:00pm 21.7 - 15.1 66 4.0 - - - - - - - 0.0
29/04:30pm 22.8 - 15.1 62 4.7 - - - - - - - 0.0
29/04:00pm 24.1 - 15.9 60 5.1 - - - - - - - 0.0
29/03:30pm 24.5 - 16.2 60 5.2 - - - - - - - 0.0
29/03:00pm 24.4 - 16.9 63 4.7 - - - - - - - 0.0
29/02:30pm 22.6 - 15.9 66 4.1 - - - - - - - 0.0
29/02:00pm 24.1 - 15.1 57 5.5 - - - - - - - 0.0
29/01:30pm 24.8 - 17.3 63 4.8 - - - - - - - 0.0
29/01:00pm 23.3 - 16.4 65 4.3 - - - - - - - 0.0
29/12:30pm 23.3 - 15.9 63 4.6 - - - - - - - 0.0
29/12:00pm 24.7 - 16.4 60 5.2 - - - - - - - 0.0
29/11:30am 22.9 - 15.2 62 4.7 - - - - - - - 0.0
29/11:00am 22.7 - 16.3 67 4.0 - - - - - - - 0.0
29/10:30am 22.6 - 15.4 64 4.4 - - - - - - - 0.0
29/10:00am 23.0 - 15.3 62 4.7 - - - - - - - 0.0
29/09:30am 22.9 - 16.2 66 4.2 - - - - - - - 0.0
29/09:00am 21.8 - 15.4 67 3.9 - - - - - - - 0.0
29/08:30am 21.5 - 16.0 71 3.4 - - - - - - - 0.0
29/08:00am 20.1 - 16.1 78 2.5 - - - - - - - 0.0
29/07:30am 19.1 - 16.1 83 1.8 - - - - - - - 0.0
29/07:00am 18.2 - 16.2 88 1.2 - - - - - - - 0.0
29/06:30am 16.8 - 15.2 90 1.0 - - - - - - - 0.0
29/06:00am 16.5 - 14.7 89 1.1 - - - - - - - 0.0
29/05:30am 16.6 - 14.8 89 1.1 - - - - - - - 0.0
29/05:00am 16.7 - 14.5 87 1.3 - - - - - - - 0.0
29/04:30am 17.2 - 14.8 86 1.4 - - - - - - - 0.0
29/04:00am 17.5 - 15.0 85 1.5 - - - - - - - 0.0
29/03:30am 17.8 - 15.1 84 1.6 - - - - - - - 0.0
29/03:00am 17.7 - 15.1 85 1.6 - - - - - - - 0.0
29/02:30am 17.6 - 14.9 84 1.6 - - - - - - - 0.0
29/02:00am 17.3 - 14.4 83 1.7 - - - - - - - 0.0
29/01:30am 18.1 - 14.4 79 2.2 - - - - - - - 0.0
29/01:00am 18.5 - 14.8 79 2.2 - - - - - - - 0.0
29/12:30am 18.2 - 14.7 80 2.1 - - - - - - - 0.0
29/12:00am 18.6 - 14.9 79 2.2 - - - - - - - 0.0
 
Date/Time
EST
Tmp

°C
App
Tmp
°C
Dew
Point
°C
Rel
Hum
%
Delta-T

°C
Wind Press
QNH
hPa
Press
MSL
hPa
Rain
since
9 am
mm
Dir
 
Spd
km/h
Gust
km/h
Spd
kts
Gust
kts
28/11:30pm 18.6 - 14.9 79 2.2 - - - - - - - 0.0
28/11:00pm 18.8 - 15.7 82 1.9 - - - - - - - 0.0
28/10:30pm 18.9 - 16.1 84 1.7 - - - - - - - 0.0
28/10:00pm 18.9 - 16.5 86 1.5 - - - - - - - 0.0
28/09:30pm 19.0 - 16.4 85 1.6 - - - - - - - 0.0
28/09:00pm 19.1 - 16.3 84 1.7 - - - - - - - 0.0
28/08:30pm 19.3 - 16.3 83 1.8 - - - - - - - 0.0
28/08:00pm 19.5 - 16.3 82 2.0 - - - - - - - 0.0
28/07:30pm 19.7 - 16.3 81 2.1 - - - - - - - 0.0
28/07:00pm 20.0 - 16.6 81 2.1 - - - - - - - 0.0
28/06:30pm 20.2 - 16.4 79 2.3 - - - - - - - 0.0
28/06:00pm 20.6 - 16.4 77 2.6 - - - - - - - 0.0
28/05:30pm 21.2 - 16.4 74 3.0 - - - - - - - 0.0
28/05:00pm 21.8 - 16.5 72 3.3 - - - - - - - 0.0
28/04:30pm 22.6 - 16.9 70 3.6 - - - - - - - 0.0
28/04:00pm 23.0 - 17.0 69 3.8 - - - - - - - 0.0
28/03:30pm 24.0 - 17.7 68 4.0 - - - - - - - 0.0
28/03:00pm 23.9 - 17.2 66 4.2 - - - - - - - 0.0
28/02:30pm 22.6 - 17.1 71 3.5 - - - - - - - 0.0
28/02:00pm 23.3 - 17.5 70 3.7 - - - - - - - 0.0
28/01:30pm 25.4 - 17.8 62 4.9 - - - - - - - 0.0
28/01:00pm 25.1 - 18.1 65 4.5 - - - - - - - 0.0
28/12:30pm 25.6 - 18.8 66 4.4 - - - - - - - 0.0

Latest Capital City Observations: Canberra | Sydney | Melbourne | Brisbane | Adelaide | Perth | Hobart | Darwin

Other Formats:

Comma delimited format used in spreadsheet applications
http://www.bom.gov.au/fwo/IDQ60901/IDQ60901.94557.axf

JavaScript Object Notation format (JSON) in row-major order
http://www.bom.gov.au/fwo/IDQ60901/IDQ60901.94557.json